sensor_id;sensor_type;location;lat;lon;timestamp;P1;durP1;ratioP1;P2;durP2;ratioP2
10659;SDS011;5378;53.206;13.316;2023-02-26T00:00:04;8.53;;;1.77;;
10659;SDS011;5378;53.206;13.316;2023-02-26T00:02:55;0.80;;;0.53;;
10659;SDS011;5378;53.206;13.316;2023-02-26T00:05:42;4.83;;;0.93;;
10659;SDS011;5378;53.206;13.316;2023-02-26T00:08:29;1.53;;;0.70;;
10659;SDS011;5378;53.206;13.316;2023-02-26T00:11:16;12.83;;;1.13;;
10659;SDS011;5378;53.206;13.316;2023-02-26T00:14:04;5.33;;;0.83;;
10659;SDS011;5378;53.206;13.316;2023-02-26T00:17:06;6.67;;;0.83;;
10659;SDS011;5378;53.206;13.316;2023-02-26T00:20:12;3.67;;;0.53;;
10659;SDS011;5378;53.206;13.316;2023-02-26T00:23:01;3.80;;;0.47;;
10659;SDS011;5378;53.206;13.316;2023-02-26T00:25:48;2.00;;;0.50;;
10659;SDS011;5378;53.206;13.316;2023-02-26T00:28:36;1.03;;;0.40;;
10659;SDS011;5378;53.206;13.316;2023-02-26T00:31:23;1.20;;;0.67;;
10659;SDS011;5378;53.206;13.316;2023-02-26T00:34:12;1.60;;;0.70;;
10659;SDS011;5378;53.206;13.316;2023-02-26T00:37:03;1.33;;;0.77;;
10659;SDS011;5378;53.206;13.316;2023-02-26T00:40:00;2.60;;;1.27;;
10659;SDS011;5378;53.206;13.316;2023-02-26T00:42:54;0.60;;;0.20;;
10659;SDS011;5378;53.206;13.316;2023-02-26T00:45:43;2.30;;;0.70;;
10659;SDS011;5378;53.206;13.316;2023-02-26T00:48:39;3.90;;;0.47;;
10659;SDS011;5378;53.206;13.316;2023-02-26T00:51:35;0.60;;;0.40;;
10659;SDS011;5378;53.206;13.316;2023-02-26T00:54:28;2.93;;;0.70;;
10659;SDS011;5378;53.206;13.316;2023-02-26T00:57:16;2.60;;;0.37;;
10659;SDS011;5378;53.206;13.316;2023-02-26T01:00:03;3.23;;;0.67;;
10659;SDS011;5378;53.206;13.316;2023-02-26T01:02:52;2.93;;;0.40;;
10659;SDS011;5378;53.206;13.316;2023-02-26T01:05:40;3.63;;;0.47;;
10659;SDS011;5378;53.206;13.316;2023-02-26T01:08:29;2.50;;;0.30;;
10659;SDS011;5378;53.206;13.316;2023-02-26T01:11:19;2.30;;;0.50;;
10659;SDS011;5378;53.206;13.316;2023-02-26T01:14:06;2.00;;;0.43;;
10659;SDS011;5378;53.206;13.316;2023-02-26T01:16:56;1.80;;;0.60;;
10659;SDS011;5378;53.206;13.316;2023-02-26T01:19:50;4.20;;;1.07;;
10659;SDS011;5378;53.206;13.316;2023-02-26T01:22:42;3.90;;;0.67;;
10659;SDS011;5378;53.206;13.316;2023-02-26T01:25:36;2.03;;;0.80;;
10659;SDS011;5378;53.206;13.316;2023-02-26T01:28:27;0.83;;;0.40;;
10659;SDS011;5378;53.206;13.316;2023-02-26T01:31:17;4.63;;;0.80;;
10659;SDS011;5378;53.206;13.316;2023-02-26T01:34:17;2.47;;;0.80;;
10659;SDS011;5378;53.206;13.316;2023-02-26T01:37:11;1.80;;;0.40;;
10659;SDS011;5378;53.206;13.316;2023-02-26T01:40:26;0.53;;;0.27;;
10659;SDS011;5378;53.206;13.316;2023-02-26T01:43:23;1.20;;;0.40;;
10659;SDS011;5378;53.206;13.316;2023-02-26T01:46:21;0.90;;;0.40;;
10659;SDS011;5378;53.206;13.316;2023-02-26T01:49:16;1.03;;;0.40;;
10659;SDS011;5378;53.206;13.316;2023-02-26T01:52:05;2.30;;;0.60;;
10659;SDS011;5378;53.206;13.316;2023-02-26T01:55:12;1.57;;;0.40;;
10659;SDS011;5378;53.206;13.316;2023-02-26T01:58:00;2.57;;;0.70;;
10659;SDS011;5378;53.206;13.316;2023-02-26T02:00:50;1.73;;;0.70;;
10659;SDS011;5378;53.206;13.316;2023-02-26T02:03:38;0.90;;;0.60;;
10659;SDS011;5378;53.206;13.316;2023-02-26T02:06:26;1.70;;;0.50;;
10659;SDS011;5378;53.206;13.316;2023-02-26T02:09:15;2.67;;;0.70;;
10659;SDS011;5378;53.206;13.316;2023-02-26T02:15:17;0.90;;;0.30;;
10659;SDS011;5378;53.206;13.316;2023-02-26T02:18:13;0.50;;;0.30;;
10659;SDS011;5378;53.206;13.316;2023-02-26T02:24:34;2.43;;;0.87;;
10659;SDS011;5378;53.206;13.316;2023-02-26T02:27:34;1.53;;;0.60;;
10659;SDS011;5378;53.206;13.316;2023-02-26T02:30:32;1.20;;;0.50;;
10659;SDS011;5378;53.206;13.316;2023-02-26T02:33:30;0.60;;;0.23;;
10659;SDS011;5378;53.206;13.316;2023-02-26T02:36:25;3.70;;;0.70;;
10659;SDS011;5378;53.206;13.316;2023-02-26T02:39:18;4.90;;;0.80;;
10659;SDS011;5378;53.206;13.316;2023-02-26T02:42:16;0.60;;;0.30;;
10659;SDS011;5378;53.206;13.316;2023-02-26T02:45:09;1.33;;;0.63;;
10659;SDS011;5378;53.206;13.316;2023-02-26T02:48:02;1.77;;;0.60;;
10659;SDS011;5378;53.206;13.316;2023-02-26T02:50:56;1.10;;;0.40;;
10659;SDS011;5378;53.206;13.316;2023-02-26T02:53:47;5.40;;;0.80;;
10659;SDS011;5378;53.206;13.316;2023-02-26T02:56:37;4.17;;;0.67;;
10659;SDS011;5378;53.206;13.316;2023-02-26T02:59:31;2.00;;;0.50;;
10659;SDS011;5378;53.206;13.316;2023-02-26T03:02:20;0.90;;;0.30;;
10659;SDS011;5378;53.206;13.316;2023-02-26T03:05:12;2.50;;;0.60;;
10659;SDS011;5378;53.206;13.316;2023-02-26T03:08:02;6.20;;;0.87;;
10659;SDS011;5378;53.206;13.316;2023-02-26T03:10:53;3.70;;;0.60;;
10659;SDS011;5378;53.206;13.316;2023-02-26T03:13:40;3.33;;;0.80;;
10659;SDS011;5378;53.206;13.316;2023-02-26T03:16:39;0.70;;;0.70;;
10659;SDS011;5378;53.206;13.316;2023-02-26T03:19:39;1.03;;;0.50;;
10659;SDS011;5378;53.206;13.316;2023-02-26T03:22:40;3.37;;;0.80;;
10659;SDS011;5378;53.206;13.316;2023-02-26T03:25:42;8.03;;;0.90;;
10659;SDS011;5378;53.206;13.316;2023-02-26T03:28:34;2.60;;;1.03;;
10659;SDS011;5378;53.206;13.316;2023-02-26T03:31:28;0.70;;;0.37;;
10659;SDS011;5378;53.206;13.316;2023-02-26T03:34:18;2.50;;;0.60;;
10659;SDS011;5378;53.206;13.316;2023-02-26T03:37:12;0.60;;;0.30;;
10659;SDS011;5378;53.206;13.316;2023-02-26T03:40:07;3.13;;;0.80;;
10659;SDS011;5378;53.206;13.316;2023-02-26T03:42:59;1.23;;;0.50;;
10659;SDS011;5378;53.206;13.316;2023-02-26T03:45:52;1.97;;;0.60;;
10659;SDS011;5378;53.206;13.316;2023-02-26T03:48:45;2.30;;;0.73;;
10659;SDS011;5378;53.206;13.316;2023-02-26T03:51:36;1.30;;;0.93;;
10659;SDS011;5378;53.206;13.316;2023-02-26T03:54:45;4.00;;;0.53;;
10659;SDS011;5378;53.206;13.316;2023-02-26T03:58:02;11.93;;;1.00;;
10659;SDS011;5378;53.206;13.316;2023-02-26T04:00:57;0.93;;;0.40;;
10659;SDS011;5378;53.206;13.316;2023-02-26T04:03:49;1.70;;;0.30;;
10659;SDS011;5378;53.206;13.316;2023-02-26T04:06:40;0.80;;;0.43;;
10659;SDS011;5378;53.206;13.316;2023-02-26T04:09:29;0.87;;;0.20;;
10659;SDS011;5378;53.206;13.316;2023-02-26T04:12:19;0.60;;;0.40;;
10659;SDS011;5378;53.206;13.316;2023-02-26T04:15:10;2.20;;;0.40;;
10659;SDS011;5378;53.206;13.316;2023-02-26T04:17:58;0.90;;;0.50;;
10659;SDS011;5378;53.206;13.316;2023-02-26T04:20:46;1.33;;;0.60;;
10659;SDS011;5378;53.206;13.316;2023-02-26T04:23:34;0.50;;;0.23;;
10659;SDS011;5378;53.206;13.316;2023-02-26T04:26:21;0.63;;;0.53;;
10659;SDS011;5378;53.206;13.316;2023-02-26T04:29:08;0.93;;;0.27;;
10659;SDS011;5378;53.206;13.316;2023-02-26T04:31:57;1.37;;;0.30;;
10659;SDS011;5378;53.206;13.316;2023-02-26T04:34:45;1.17;;;0.43;;
10659;SDS011;5378;53.206;13.316;2023-02-26T04:37:35;0.67;;;0.40;;
10659;SDS011;5378;53.206;13.316;2023-02-26T04:40:22;1.10;;;0.50;;
10659;SDS011;5378;53.206;13.316;2023-02-26T04:43:09;1.67;;;0.40;;
10659;SDS011;5378;53.206;13.316;2023-02-26T04:46:04;0.83;;;0.40;;
10659;SDS011;5378;53.206;13.316;2023-02-26T04:48:55;1.70;;;0.80;;
10659;SDS011;5378;53.206;13.316;2023-02-26T04:51:42;5.20;;;0.50;;
10659;SDS011;5378;53.206;13.316;2023-02-26T04:54:31;0.63;;;0.30;;
10659;SDS011;5378;53.206;13.316;2023-02-26T04:57:18;3.60;;;0.30;;
10659;SDS011;5378;53.206;13.316;2023-02-26T05:00:09;1.17;;;0.40;;
10659;SDS011;5378;53.206;13.316;2023-02-26T05:02:57;1.07;;;0.33;;
10659;SDS011;5378;53.206;13.316;2023-02-26T05:05:46;3.23;;;0.20;;
10659;SDS011;5378;53.206;13.316;2023-02-26T05:08:33;4.10;;;0.70;;
10659;SDS011;5378;53.206;13.316;2023-02-26T05:11:20;1.73;;;0.40;;
10659;SDS011;5378;53.206;13.316;2023-02-26T05:14:08;2.50;;;0.40;;
10659;SDS011;5378;53.206;13.316;2023-02-26T05:16:55;1.77;;;0.60;;
10659;SDS011;5378;53.206;13.316;2023-02-26T05:19:42;0.90;;;0.50;;
10659;SDS011;5378;53.206;13.316;2023-02-26T05:22:31;2.60;;;0.83;;
10659;SDS011;5378;53.206;13.316;2023-02-26T05:25:18;2.00;;;0.70;;
10659;SDS011;5378;53.206;13.316;2023-02-26T05:28:05;5.10;;;0.70;;
10659;SDS011;5378;53.206;13.316;2023-02-26T05:30:52;0.50;;;0.30;;
10659;SDS011;5378;53.206;13.316;2023-02-26T05:33:41;1.07;;;0.60;;
10659;SDS011;5378;53.206;13.316;2023-02-26T05:36:28;0.77;;;0.43;;
10659;SDS011;5378;53.206;13.316;2023-02-26T05:39:17;1.03;;;0.47;;
10659;SDS011;5378;53.206;13.316;2023-02-26T05:42:04;1.10;;;0.43;;
10659;SDS011;5378;53.206;13.316;2023-02-26T05:44:51;1.10;;;0.40;;
10659;SDS011;5378;53.206;13.316;2023-02-26T05:47:39;2.10;;;1.03;;
10659;SDS011;5378;53.206;13.316;2023-02-26T05:50:26;4.50;;;1.00;;
10659;SDS011;5378;53.206;13.316;2023-02-26T05:53:14;4.23;;;0.70;;
10659;SDS011;5378;53.206;13.316;2023-02-26T05:56:04;5.70;;;1.57;;
10659;SDS011;5378;53.206;13.316;2023-02-26T05:58:51;6.03;;;2.40;;
10659;SDS011;5378;53.206;13.316;2023-02-26T06:01:38;4.53;;;2.43;;
10659;SDS011;5378;53.206;13.316;2023-02-26T06:04:27;3.27;;;1.07;;
10659;SDS011;5378;53.206;13.316;2023-02-26T06:07:14;5.13;;;0.80;;
10659;SDS011;5378;53.206;13.316;2023-02-26T06:10:01;2.53;;;1.07;;
10659;SDS011;5378;53.206;13.316;2023-02-26T06:12:49;0.80;;;0.30;;
10659;SDS011;5378;53.206;13.316;2023-02-26T06:15:36;1.47;;;0.50;;
10659;SDS011;5378;53.206;13.316;2023-02-26T06:18:24;2.50;;;0.77;;
10659;SDS011;5378;53.206;13.316;2023-02-26T06:21:11;3.93;;;1.10;;
10659;SDS011;5378;53.206;13.316;2023-02-26T06:23:58;2.63;;;0.70;;
10659;SDS011;5378;53.206;13.316;2023-02-26T06:26:45;3.53;;;0.83;;
10659;SDS011;5378;53.206;13.316;2023-02-26T06:29:34;10.90;;;2.70;;
10659;SDS011;5378;53.206;13.316;2023-02-26T06:32:22;3.17;;;0.87;;
10659;SDS011;5378;53.206;13.316;2023-02-26T06:35:09;5.57;;;0.57;;
10659;SDS011;5378;53.206;13.316;2023-02-26T06:37:56;0.90;;;0.50;;
10659;SDS011;5378;53.206;13.316;2023-02-26T06:40:43;2.20;;;0.80;;
10659;SDS011;5378;53.206;13.316;2023-02-26T06:43:32;1.90;;;1.13;;
10659;SDS011;5378;53.206;13.316;2023-02-26T06:46:20;6.80;;;0.70;;
10659;SDS011;5378;53.206;13.316;2023-02-26T06:49:07;1.70;;;0.90;;
10659;SDS011;5378;53.206;13.316;2023-02-26T06:51:55;1.63;;;0.63;;
10659;SDS011;5378;53.206;13.316;2023-02-26T06:54:42;6.20;;;0.57;;
10659;SDS011;5378;53.206;13.316;2023-02-26T06:57:29;5.97;;;1.10;;
10659;SDS011;5378;53.206;13.316;2023-02-26T07:00:16;2.13;;;1.13;;
10659;SDS011;5378;53.206;13.316;2023-02-26T07:03:05;5.53;;;1.70;;
10659;SDS011;5378;53.206;13.316;2023-02-26T07:05:52;3.17;;;0.90;;
10659;SDS011;5378;53.206;13.316;2023-02-26T07:08:39;4.23;;;0.87;;
10659;SDS011;5378;53.206;13.316;2023-02-26T07:11:26;3.43;;;0.67;;
10659;SDS011;5378;53.206;13.316;2023-02-26T07:14:13;2.23;;;0.73;;
10659;SDS011;5378;53.206;13.316;2023-02-26T07:17:02;1.10;;;0.50;;
10659;SDS011;5378;53.206;13.316;2023-02-26T07:19:51;4.87;;;0.97;;
10659;SDS011;5378;53.206;13.316;2023-02-26T07:22:39;2.20;;;0.63;;
10659;SDS011;5378;53.206;13.316;2023-02-26T07:25:26;3.70;;;0.50;;
10659;SDS011;5378;53.206;13.316;2023-02-26T07:28:13;1.00;;;0.57;;
10659;SDS011;5378;53.206;13.316;2023-02-26T07:31:00;1.50;;;0.83;;
10659;SDS011;5378;53.206;13.316;2023-02-26T07:33:48;2.60;;;1.07;;
10659;SDS011;5378;53.206;13.316;2023-02-26T07:36:36;4.53;;;0.30;;
10659;SDS011;5378;53.206;13.316;2023-02-26T07:39:24;4.77;;;0.50;;
10659;SDS011;5378;53.206;13.316;2023-02-26T07:42:11;1.90;;;0.73;;
10659;SDS011;5378;53.206;13.316;2023-02-26T07:44:59;0.60;;;0.40;;
10659;SDS011;5378;53.206;13.316;2023-02-26T07:47:46;3.30;;;1.07;;
10659;SDS011;5378;53.206;13.316;2023-02-26T07:50:34;2.13;;;0.50;;
10659;SDS011;5378;53.206;13.316;2023-02-26T07:53:22;0.50;;;0.30;;
10659;SDS011;5378;53.206;13.316;2023-02-26T07:56:09;3.17;;;0.93;;
10659;SDS011;5378;53.206;13.316;2023-02-26T07:58:57;2.70;;;0.77;;
10659;SDS011;5378;53.206;13.316;2023-02-26T08:01:43;0.60;;;0.50;;
10659;SDS011;5378;53.206;13.316;2023-02-26T08:04:31;1.57;;;0.63;;
10659;SDS011;5378;53.206;13.316;2023-02-26T08:07:18;6.53;;;0.73;;
10659;SDS011;5378;53.206;13.316;2023-02-26T08:10:07;1.80;;;0.73;;
10659;SDS011;5378;53.206;13.316;2023-02-26T08:12:55;2.90;;;0.90;;
10659;SDS011;5378;53.206;13.316;2023-02-26T08:15:42;0.90;;;0.77;;
10659;SDS011;5378;53.206;13.316;2023-02-26T08:18:29;8.83;;;0.97;;
10659;SDS011;5378;53.206;13.316;2023-02-26T08:21:16;3.10;;;0.97;;
10659;SDS011;5378;53.206;13.316;2023-02-26T08:24:03;2.10;;;1.03;;
10659;SDS011;5378;53.206;13.316;2023-02-26T08:26:52;3.60;;;1.27;;
10659;SDS011;5378;53.206;13.316;2023-02-26T08:29:39;4.10;;;1.43;;
10659;SDS011;5378;53.206;13.316;2023-02-26T08:32:27;1.83;;;1.10;;
10659;SDS011;5378;53.206;13.316;2023-02-26T08:35:14;1.73;;;0.70;;
10659;SDS011;5378;53.206;13.316;2023-02-26T08:38:02;1.77;;;0.90;;
10659;SDS011;5378;53.206;13.316;2023-02-26T08:40:49;4.93;;;1.63;;
10659;SDS011;5378;53.206;13.316;2023-02-26T08:43:38;2.73;;;0.80;;
10659;SDS011;5378;53.206;13.316;2023-02-26T08:46:26;1.60;;;0.57;;
10659;SDS011;5378;53.206;13.316;2023-02-26T08:49:13;1.77;;;0.70;;
10659;SDS011;5378;53.206;13.316;2023-02-26T08:52:00;1.03;;;0.53;;
10659;SDS011;5378;53.206;13.316;2023-02-26T08:54:47;4.77;;;1.00;;
10659;SDS011;5378;53.206;13.316;2023-02-26T08:57:35;1.27;;;0.40;;
10659;SDS011;5378;53.206;13.316;2023-02-26T09:00:23;1.33;;;0.80;;
10659;SDS011;5378;53.206;13.316;2023-02-26T09:03:10;5.37;;;1.00;;
10659;SDS011;5378;53.206;13.316;2023-02-26T09:05:58;2.00;;;0.63;;
10659;SDS011;5378;53.206;13.316;2023-02-26T09:08:45;0.93;;;0.77;;
10659;SDS011;5378;53.206;13.316;2023-02-26T09:11:33;4.47;;;1.07;;
10659;SDS011;5378;53.206;13.316;2023-02-26T09:14:21;5.53;;;1.27;;
10659;SDS011;5378;53.206;13.316;2023-02-26T09:17:10;1.90;;;0.87;;
10659;SDS011;5378;53.206;13.316;2023-02-26T09:19:57;0.90;;;0.40;;
10659;SDS011;5378;53.206;13.316;2023-02-26T09:22:44;1.13;;;0.67;;
10659;SDS011;5378;53.206;13.316;2023-02-26T09:25:31;1.40;;;0.80;;
10659;SDS011;5378;53.206;13.316;2023-02-26T09:28:19;1.80;;;0.90;;
10659;SDS011;5378;53.206;13.316;2023-02-26T09:31:06;1.70;;;0.87;;
10659;SDS011;5378;53.206;13.316;2023-02-26T09:33:55;2.27;;;0.73;;
10659;SDS011;5378;53.206;13.316;2023-02-26T09:36:43;4.10;;;0.77;;
10659;SDS011;5378;53.206;13.316;2023-02-26T09:39:30;1.23;;;0.50;;
10659;SDS011;5378;53.206;13.316;2023-02-26T09:42:21;2.93;;;0.73;;
10659;SDS011;5378;53.206;13.316;2023-02-26T09:45:19;0.90;;;0.57;;
10659;SDS011;5378;53.206;13.316;2023-02-26T09:48:12;2.50;;;0.67;;
10659;SDS011;5378;53.206;13.316;2023-02-26T09:51:04;6.07;;;1.10;;
10659;SDS011;5378;53.206;13.316;2023-02-26T09:53:53;2.53;;;0.73;;
10659;SDS011;5378;53.206;13.316;2023-02-26T09:56:45;3.10;;;1.00;;
10659;SDS011;5378;53.206;13.316;2023-02-26T09:59:33;3.37;;;1.77;;
10659;SDS011;5378;53.206;13.316;2023-02-26T10:02:20;6.07;;;1.87;;
10659;SDS011;5378;53.206;13.316;2023-02-26T10:05:17;7.53;;;1.90;;
10659;SDS011;5378;53.206;13.316;2023-02-26T10:08:11;1.57;;;0.50;;
10659;SDS011;5378;53.206;13.316;2023-02-26T10:11:03;3.13;;;1.37;;
10659;SDS011;5378;53.206;13.316;2023-02-26T10:13:57;1.30;;;0.90;;
10659;SDS011;5378;53.206;13.316;2023-02-26T10:16:48;3.10;;;0.80;;
10659;SDS011;5378;53.206;13.316;2023-02-26T10:19:39;3.57;;;0.60;;
10659;SDS011;5378;53.206;13.316;2023-02-26T10:22:31;3.87;;;0.70;;
10659;SDS011;5378;53.206;13.316;2023-02-26T10:25:24;0.80;;;0.60;;
10659;SDS011;5378;53.206;13.316;2023-02-26T10:28:23;0.90;;;0.50;;
10659;SDS011;5378;53.206;13.316;2023-02-26T10:31:22;8.43;;;1.47;;
10659;SDS011;5378;53.206;13.316;2023-02-26T10:34:16;4.97;;;1.70;;
10659;SDS011;5378;53.206;13.316;2023-02-26T10:37:12;1.80;;;0.83;;
10659;SDS011;5378;53.206;13.316;2023-02-26T10:40:08;1.80;;;0.60;;
10659;SDS011;5378;53.206;13.316;2023-02-26T10:43:02;1.47;;;0.50;;
10659;SDS011;5378;53.206;13.316;2023-02-26T10:45:57;2.20;;;0.80;;
10659;SDS011;5378;53.206;13.316;2023-02-26T10:48:59;1.40;;;0.50;;
10659;SDS011;5378;53.206;13.316;2023-02-26T10:52:00;1.60;;;0.80;;
10659;SDS011;5378;53.206;13.316;2023-02-26T10:55:01;0.97;;;0.33;;
10659;SDS011;5378;53.206;13.316;2023-02-26T10:57:54;2.40;;;0.50;;
10659;SDS011;5378;53.206;13.316;2023-02-26T11:00:47;0.97;;;0.67;;
10659;SDS011;5378;53.206;13.316;2023-02-26T11:03:39;1.10;;;0.70;;
10659;SDS011;5378;53.206;13.316;2023-02-26T11:06:29;3.33;;;0.30;;
10659;SDS011;5378;53.206;13.316;2023-02-26T11:09:19;0.97;;;0.30;;
10659;SDS011;5378;53.206;13.316;2023-02-26T11:12:11;4.03;;;0.70;;
10659;SDS011;5378;53.206;13.316;2023-02-26T11:14:59;1.07;;;0.50;;
10659;SDS011;5378;53.206;13.316;2023-02-26T11:17:52;2.60;;;0.50;;
10659;SDS011;5378;53.206;13.316;2023-02-26T11:20:40;0.80;;;0.40;;
10659;SDS011;5378;53.206;13.316;2023-02-26T11:23:29;1.37;;;0.67;;
10659;SDS011;5378;53.206;13.316;2023-02-26T11:26:18;0.50;;;0.30;;
10659;SDS011;5378;53.206;13.316;2023-02-26T11:29:13;1.10;;;0.40;;
10659;SDS011;5378;53.206;13.316;2023-02-26T11:32:03;2.23;;;0.70;;
10659;SDS011;5378;53.206;13.316;2023-02-26T11:34:52;1.13;;;0.60;;
10659;SDS011;5378;53.206;13.316;2023-02-26T11:37:41;0.90;;;0.80;;
10659;SDS011;5378;53.206;13.316;2023-02-26T11:40:36;6.40;;;0.93;;
10659;SDS011;5378;53.206;13.316;2023-02-26T11:43:26;4.10;;;0.43;;
10659;SDS011;5378;53.206;13.316;2023-02-26T11:46:21;4.70;;;1.07;;
10659;SDS011;5378;53.206;13.316;2023-02-26T11:49:11;6.20;;;1.30;;
10659;SDS011;5378;53.206;13.316;2023-02-26T11:52:05;4.60;;;0.50;;
10659;SDS011;5378;53.206;13.316;2023-02-26T11:55:04;1.17;;;0.73;;
10659;SDS011;5378;53.206;13.316;2023-02-26T11:58:04;3.43;;;1.13;;
10659;SDS011;5378;53.206;13.316;2023-02-26T12:01:03;1.73;;;0.40;;
10659;SDS011;5378;53.206;13.316;2023-02-26T12:03:52;0.70;;;0.50;;
10659;SDS011;5378;53.206;13.316;2023-02-26T12:06:42;1.90;;;0.73;;
10659;SDS011;5378;53.206;13.316;2023-02-26T12:09:33;0.50;;;0.30;;
10659;SDS011;5378;53.206;13.316;2023-02-26T12:12:33;1.53;;;0.60;;
10659;SDS011;5378;53.206;13.316;2023-02-26T12:15:33;2.50;;;0.40;;
10659;SDS011;5378;53.206;13.316;2023-02-26T12:18:28;3.27;;;0.30;;
10659;SDS011;5378;53.206;13.316;2023-02-26T12:21:27;3.60;;;0.50;;
10659;SDS011;5378;53.206;13.316;2023-02-26T12:24:40;3.40;;;1.20;;
10659;SDS011;5378;53.206;13.316;2023-02-26T12:27:47;1.23;;;0.80;;
10659;SDS011;5378;53.206;13.316;2023-02-26T12:34:19;4.07;;;0.33;;
10659;SDS011;5378;53.206;13.316;2023-02-26T12:37:19;0.80;;;0.50;;
10659;SDS011;5378;53.206;13.316;2023-02-26T12:40:39;1.70;;;0.50;;
10659;SDS011;5378;53.206;13.316;2023-02-26T12:43:50;1.27;;;0.57;;
10659;SDS011;5378;53.206;13.316;2023-02-26T12:46:43;1.30;;;0.87;;
10659;SDS011;5378;53.206;13.316;2023-02-26T12:49:48;3.33;;;0.97;;
10659;SDS011;5378;53.206;13.316;2023-02-26T12:53:01;1.63;;;0.57;;
10659;SDS011;5378;53.206;13.316;2023-02-26T12:56:16;1.17;;;0.30;;
10659;SDS011;5378;53.206;13.316;2023-02-26T12:59:16;0.70;;;0.47;;
10659;SDS011;5378;53.206;13.316;2023-02-26T13:05:41;2.07;;;0.70;;
10659;SDS011;5378;53.206;13.316;2023-02-26T13:08:39;1.43;;;0.60;;
10659;SDS011;5378;53.206;13.316;2023-02-26T13:11:40;1.73;;;0.70;;
10659;SDS011;5378;53.206;13.316;2023-02-26T13:14:37;2.10;;;0.73;;
10659;SDS011;5378;53.206;13.316;2023-02-26T13:17:33;3.27;;;0.80;;
10659;SDS011;5378;53.206;13.316;2023-02-26T13:20:26;0.70;;;0.50;;
10659;SDS011;5378;53.206;13.316;2023-02-26T13:23:15;0.60;;;0.40;;
10659;SDS011;5378;53.206;13.316;2023-02-26T13:26:06;3.27;;;0.80;;
10659;SDS011;5378;53.206;13.316;2023-02-26T13:28:57;4.00;;;0.70;;
10659;SDS011;5378;53.206;13.316;2023-02-26T13:31:49;6.60;;;0.60;;
10659;SDS011;5378;53.206;13.316;2023-02-26T13:34:41;7.53;;;1.03;;
10659;SDS011;5378;53.206;13.316;2023-02-26T13:37:33;1.73;;;0.67;;
10659;SDS011;5378;53.206;13.316;2023-02-26T13:43:40;2.30;;;1.07;;
10659;SDS011;5378;53.206;13.316;2023-02-26T13:50:08;2.97;;;0.60;;
10659;SDS011;5378;53.206;13.316;2023-02-26T13:59:37;1.27;;;0.53;;
10659;SDS011;5378;53.206;13.316;2023-02-26T14:08:54;0.60;;;0.30;;
10659;SDS011;5378;53.206;13.316;2023-02-26T14:11:44;1.93;;;0.57;;
10659;SDS011;5378;53.206;13.316;2023-02-26T14:14:33;1.57;;;0.30;;
10659;SDS011;5378;53.206;13.316;2023-02-26T14:17:27;2.70;;;0.70;;
10659;SDS011;5378;53.206;13.316;2023-02-26T14:20:18;1.43;;;0.50;;
10659;SDS011;5378;53.206;13.316;2023-02-26T14:23:11;4.73;;;1.10;;
10659;SDS011;5378;53.206;13.316;2023-02-26T14:26:08;1.30;;;0.60;;
10659;SDS011;5378;53.206;13.316;2023-02-26T14:29:11;0.60;;;0.47;;
10659;SDS011;5378;53.206;13.316;2023-02-26T14:32:11;0.60;;;0.30;;
10659;SDS011;5378;53.206;13.316;2023-02-26T14:35:02;1.27;;;0.50;;
10659;SDS011;5378;53.206;13.316;2023-02-26T14:37:55;4.23;;;0.60;;
10659;SDS011;5378;53.206;13.316;2023-02-26T14:40:45;2.13;;;0.80;;
10659;SDS011;5378;53.206;13.316;2023-02-26T14:43:35;1.63;;;0.97;;
10659;SDS011;5378;53.206;13.316;2023-02-26T14:46:25;2.97;;;1.10;;
10659;SDS011;5378;53.206;13.316;2023-02-26T14:49:14;5.33;;;1.20;;
10659;SDS011;5378;53.206;13.316;2023-02-26T14:52:18;3.00;;;0.60;;
10659;SDS011;5378;53.206;13.316;2023-02-26T14:55:31;1.53;;;1.03;;
10659;SDS011;5378;53.206;13.316;2023-02-26T14:58:30;1.23;;;0.60;;
10659;SDS011;5378;53.206;13.316;2023-02-26T15:01:43;3.23;;;0.70;;
10659;SDS011;5378;53.206;13.316;2023-02-26T15:04:41;1.57;;;0.47;;
10659;SDS011;5378;53.206;13.316;2023-02-26T15:08:02;2.20;;;0.90;;
10659;SDS011;5378;53.206;13.316;2023-02-26T15:11:05;1.80;;;0.47;;
10659;SDS011;5378;53.206;13.316;2023-02-26T15:14:21;0.50;;;0.20;;
10659;SDS011;5378;53.206;13.316;2023-02-26T15:17:29;0.60;;;0.43;;
10659;SDS011;5378;53.206;13.316;2023-02-26T15:20:30;1.53;;;0.50;;
10659;SDS011;5378;53.206;13.316;2023-02-26T15:23:28;3.37;;;0.80;;
10659;SDS011;5378;53.206;13.316;2023-02-26T15:26:27;4.50;;;0.53;;
10659;SDS011;5378;53.206;13.316;2023-02-26T15:29:17;1.13;;;0.50;;
10659;SDS011;5378;53.206;13.316;2023-02-26T15:32:14;0.60;;;0.50;;
10659;SDS011;5378;53.206;13.316;2023-02-26T15:35:10;0.93;;;0.40;;
10659;SDS011;5378;53.206;13.316;2023-02-26T15:38:03;0.77;;;0.47;;
10659;SDS011;5378;53.206;13.316;2023-02-26T15:40:51;0.70;;;0.60;;
10659;SDS011;5378;53.206;13.316;2023-02-26T15:43:42;1.00;;;0.30;;
10659;SDS011;5378;53.206;13.316;2023-02-26T15:46:34;0.60;;;0.40;;
10659;SDS011;5378;53.206;13.316;2023-02-26T15:49:24;4.23;;;0.40;;
10659;SDS011;5378;53.206;13.316;2023-02-26T15:52:14;1.37;;;0.40;;
10659;SDS011;5378;53.206;13.316;2023-02-26T15:55:06;0.60;;;0.30;;
10659;SDS011;5378;53.206;13.316;2023-02-26T15:57:59;2.80;;;0.73;;
10659;SDS011;5378;53.206;13.316;2023-02-26T16:00:51;4.20;;;0.60;;
10659;SDS011;5378;53.206;13.316;2023-02-26T16:03:39;1.70;;;0.60;;
10659;SDS011;5378;53.206;13.316;2023-02-26T16:06:27;3.60;;;1.47;;
10659;SDS011;5378;53.206;13.316;2023-02-26T16:09:16;4.37;;;1.50;;
10659;SDS011;5378;53.206;13.316;2023-02-26T16:12:07;3.37;;;1.63;;
10659;SDS011;5378;53.206;13.316;2023-02-26T16:14:57;4.97;;;1.17;;
10659;SDS011;5378;53.206;13.316;2023-02-26T16:17:48;4.27;;;1.33;;
10659;SDS011;5378;53.206;13.316;2023-02-26T16:20:39;0.80;;;0.50;;
10659;SDS011;5378;53.206;13.316;2023-02-26T16:23:31;1.27;;;0.80;;
10659;SDS011;5378;53.206;13.316;2023-02-26T16:26:27;1.87;;;0.67;;
10659;SDS011;5378;53.206;13.316;2023-02-26T16:29:18;0.87;;;0.67;;
10659;SDS011;5378;53.206;13.316;2023-02-26T16:32:09;2.60;;;0.80;;
10659;SDS011;5378;53.206;13.316;2023-02-26T16:34:58;1.67;;;0.50;;
10659;SDS011;5378;53.206;13.316;2023-02-26T16:37:53;2.80;;;1.50;;
10659;SDS011;5378;53.206;13.316;2023-02-26T16:40:40;2.37;;;1.17;;
10659;SDS011;5378;53.206;13.316;2023-02-26T16:43:34;5.60;;;1.90;;
10659;SDS011;5378;53.206;13.316;2023-02-26T16:46:35;5.20;;;2.00;;
10659;SDS011;5378;53.206;13.316;2023-02-26T16:49:28;6.47;;;2.20;;
10659;SDS011;5378;53.206;13.316;2023-02-26T16:52:19;5.20;;;2.47;;
10659;SDS011;5378;53.206;13.316;2023-02-26T16:55:10;5.47;;;3.20;;
10659;SDS011;5378;53.206;13.316;2023-02-26T16:58:03;8.63;;;2.70;;
10659;SDS011;5378;53.206;13.316;2023-02-26T17:00:54;7.63;;;2.90;;
10659;SDS011;5378;53.206;13.316;2023-02-26T17:03:55;4.73;;;1.70;;
10659;SDS011;5378;53.206;13.316;2023-02-26T17:06:45;4.53;;;1.13;;
10659;SDS011;5378;53.206;13.316;2023-02-26T17:09:34;2.90;;;1.00;;
10659;SDS011;5378;53.206;13.316;2023-02-26T17:12:27;4.77;;;0.90;;
10659;SDS011;5378;53.206;13.316;2023-02-26T17:15:16;4.83;;;1.10;;
10659;SDS011;5378;53.206;13.316;2023-02-26T17:18:05;4.23;;;1.40;;
10659;SDS011;5378;53.206;13.316;2023-02-26T17:20:54;5.43;;;2.10;;
10659;SDS011;5378;53.206;13.316;2023-02-26T17:23:42;8.63;;;2.70;;
10659;SDS011;5378;53.206;13.316;2023-02-26T17:26:29;25.57;;;11.63;;
10659;SDS011;5378;53.206;13.316;2023-02-26T17:29:18;26.90;;;13.20;;
10659;SDS011;5378;53.206;13.316;2023-02-26T17:32:10;13.07;;;5.23;;
10659;SDS011;5378;53.206;13.316;2023-02-26T17:35:02;5.00;;;3.20;;
10659;SDS011;5378;53.206;13.316;2023-02-26T17:37:52;7.17;;;2.00;;
10659;SDS011;5378;53.206;13.316;2023-02-26T17:40:39;4.50;;;1.90;;
10659;SDS011;5378;53.206;13.316;2023-02-26T17:43:27;5.13;;;2.50;;
10659;SDS011;5378;53.206;13.316;2023-02-26T17:46:14;4.70;;;2.53;;
10659;SDS011;5378;53.206;13.316;2023-02-26T17:49:01;10.93;;;4.37;;